S28 weather

International Peace Garden Airport
Dunseith, North Dakota, United States

Public forecast

Using degrees Fahrenheit for public forecast. Weather courtesy of forecast.io.

METAR (pilot weather report)

Closest report is Rolla Municipal Airport, 18.0 nm (33.3 km) ESE. Retrieved 2019/05/24 04:35 UTC (0 seconds ago):

K06D 240435Z AUTO 00000KT 10SM CLR 09/02 A3006 RMK AO2

TAF (pilot weather forecast)

Forecast is more than 12 hours old.

Closest forecast is Brandon Municipal Airport, 54.9 nm (101.6 km) N. Retrieved 2019/05/23 00:39 UTC (1 day ago):

TAF CYBR 232338Z 2400/2412 08005KT P6SM FEW080 BKN250 RMK NXT FCST BY 240600Z